sensor_id;sensor_type;location;lat;lon;timestamp;temperature;humidity
28959;DHT22;16066;0.000;0.000;2023-04-16T00:02:17;19.40;40.90
28959;DHT22;16066;0.000;0.000;2023-04-16T00:04:42;19.40;40.90
28959;DHT22;16066;0.000;0.000;2023-04-16T00:07:08;19.40;40.90
28959;DHT22;16066;0.000;0.000;2023-04-16T00:09:33;19.40;41.00
28959;DHT22;16066;0.000;0.000;2023-04-16T00:11:59;19.40;41.00
28959;DHT22;16066;0.000;0.000;2023-04-16T00:14:25;19.40;41.00
28959;DHT22;16066;0.000;0.000;2023-04-16T00:16:50;19.40;41.00
28959;DHT22;16066;0.000;0.000;2023-04-16T00:19:15;19.40;41.00
28959;DHT22;16066;0.000;0.000;2023-04-16T00:21:41;19.40;41.10
28959;DHT22;16066;0.000;0.000;2023-04-16T00:24:07;19.40;41.00
28959;DHT22;16066;0.000;0.000;2023-04-16T00:26:32;19.40;41.10
28959;DHT22;16066;0.000;0.000;2023-04-16T00:28:58;19.40;41.10
28959;DHT22;16066;0.000;0.000;2023-04-16T00:31:28;19.40;41.10
28959;DHT22;16066;0.000;0.000;2023-04-16T00:33:55;19.30;41.10
28959;DHT22;16066;0.000;0.000;2023-04-16T00:36:22;19.30;41.10
28959;DHT22;16066;0.000;0.000;2023-04-16T00:38:48;19.30;41.10
28959;DHT22;16066;0.000;0.000;2023-04-16T00:41:13;19.30;41.10
28959;DHT22;16066;0.000;0.000;2023-04-16T00:43:39;19.30;41.10
28959;DHT22;16066;0.000;0.000;2023-04-16T00:46:04;19.30;41.10
28959;DHT22;16066;0.000;0.000;2023-04-16T00:48:32;19.30;41.10
28959;DHT22;16066;0.000;0.000;2023-04-16T00:50:58;19.30;41.10
28959;DHT22;16066;0.000;0.000;2023-04-16T00:53:25;19.30;41.10
28959;DHT22;16066;0.000;0.000;2023-04-16T00:55:51;19.30;41.20
28959;DHT22;16066;0.000;0.000;2023-04-16T00:58:17;19.30;41.20
28959;DHT22;16066;0.000;0.000;2023-04-16T01:00:42;19.30;41.20
28959;DHT22;16066;0.000;0.000;2023-04-16T01:03:08;19.30;41.20
28959;DHT22;16066;0.000;0.000;2023-04-16T01:05:35;19.30;41.20
28959;DHT22;16066;0.000;0.000;2023-04-16T01:08:01;19.20;41.10
28959;DHT22;16066;0.000;0.000;2023-04-16T01:10:26;19.30;41.10
28959;DHT22;16066;0.000;0.000;2023-04-16T01:12:52;19.20;41.20
28959;DHT22;16066;0.000;0.000;2023-04-16T01:15:18;19.20;41.10
28959;DHT22;16066;0.000;0.000;2023-04-16T01:17:44;19.20;41.10
28959;DHT22;16066;0.000;0.000;2023-04-16T01:20:10;19.20;41.00
28959;DHT22;16066;0.000;0.000;2023-04-16T01:22:36;19.20;41.00
28959;DHT22;16066;0.000;0.000;2023-04-16T01:25:01;19.20;41.10
28959;DHT22;16066;0.000;0.000;2023-04-16T01:27:27;19.20;41.00
28959;DHT22;16066;0.000;0.000;2023-04-16T01:29:52;19.20;41.20
28959;DHT22;16066;0.000;0.000;2023-04-16T01:32:18;19.20;41.10
28959;DHT22;16066;0.000;0.000;2023-04-16T01:34:43;19.20;41.20
28959;DHT22;16066;0.000;0.000;2023-04-16T01:37:11;19.20;41.20
28959;DHT22;16066;0.000;0.000;2023-04-16T01:39:37;19.20;41.20
28959;DHT22;16066;0.000;0.000;2023-04-16T01:42:02;19.20;41.20
28959;DHT22;16066;0.000;0.000;2023-04-16T01:44:28;19.20;41.80
28959;DHT22;16066;0.000;0.000;2023-04-16T01:46:55;19.20;41.20
28959;DHT22;16066;0.000;0.000;2023-04-16T01:49:21;19.20;41.20
28959;DHT22;16066;0.000;0.000;2023-04-16T01:51:47;19.20;41.20
28959;DHT22;16066;0.000;0.000;2023-04-16T01:54:12;19.20;41.20
28959;DHT22;16066;0.000;0.000;2023-04-16T01:56:38;19.20;41.20
28959;DHT22;16066;0.000;0.000;2023-04-16T01:59:03;19.20;41.20
28959;DHT22;16066;0.000;0.000;2023-04-16T02:01:29;19.20;41.20
28959;DHT22;16066;0.000;0.000;2023-04-16T02:03:56;19.20;41.20
28959;DHT22;16066;0.000;0.000;2023-04-16T02:06:21;19.20;41.20
28959;DHT22;16066;0.000;0.000;2023-04-16T02:08:47;19.20;41.20
28959;DHT22;16066;0.000;0.000;2023-04-16T02:11:12;19.20;41.20
28959;DHT22;16066;0.000;0.000;2023-04-16T02:13:38;19.20;41.20
28959;DHT22;16066;0.000;0.000;2023-04-16T02:16:03;19.10;41.20
28959;DHT22;16066;0.000;0.000;2023-04-16T02:18:29;19.20;41.20
28959;DHT22;16066;0.000;0.000;2023-04-16T02:20:57;19.20;41.20
28959;DHT22;16066;0.000;0.000;2023-04-16T02:23:24;19.10;41.30
28959;DHT22;16066;0.000;0.000;2023-04-16T02:25:49;19.20;41.20
28959;DHT22;16066;0.000;0.000;2023-04-16T02:28:16;19.10;41.20
28959;DHT22;16066;0.000;0.000;2023-04-16T02:30:42;19.10;41.20
28959;DHT22;16066;0.000;0.000;2023-04-16T02:33:09;19.10;41.20
28959;DHT22;16066;0.000;0.000;2023-04-16T02:35:36;19.10;41.20
28959;DHT22;16066;0.000;0.000;2023-04-16T02:38:03;19.10;41.20
28959;DHT22;16066;0.000;0.000;2023-04-16T02:40:29;19.10;41.20
28959;DHT22;16066;0.000;0.000;2023-04-16T02:42:55;19.10;41.20
28959;DHT22;16066;0.000;0.000;2023-04-16T02:45:21;19.10;41.20
28959;DHT22;16066;0.000;0.000;2023-04-16T02:47:47;19.10;41.20
28959;DHT22;16066;0.000;0.000;2023-04-16T02:50:13;19.10;41.20
28959;DHT22;16066;0.000;0.000;2023-04-16T02:52:38;19.10;41.20
28959;DHT22;16066;0.000;0.000;2023-04-16T02:55:04;19.10;41.20
28959;DHT22;16066;0.000;0.000;2023-04-16T02:57:30;19.10;41.20
28959;DHT22;16066;0.000;0.000;2023-04-16T02:59:56;19.10;41.20
28959;DHT22;16066;0.000;0.000;2023-04-16T03:02:21;19.10;41.20
28959;DHT22;16066;0.000;0.000;2023-04-16T03:04:47;19.10;41.30
28959;DHT22;16066;0.000;0.000;2023-04-16T03:07:12;19.10;41.20
28959;DHT22;16066;0.000;0.000;2023-04-16T03:09:38;19.10;41.20
28959;DHT22;16066;0.000;0.000;2023-04-16T03:12:04;19.10;41.20
28959;DHT22;16066;0.000;0.000;2023-04-16T03:14:30;19.10;41.20
28959;DHT22;16066;0.000;0.000;2023-04-16T03:16:56;19.10;41.30
28959;DHT22;16066;0.000;0.000;2023-04-16T03:19:21;19.10;41.20
28959;DHT22;16066;0.000;0.000;2023-04-16T03:21:47;19.10;41.20
28959;DHT22;16066;0.000;0.000;2023-04-16T03:24:13;19.10;41.30
28959;DHT22;16066;0.000;0.000;2023-04-16T03:26:39;19.10;41.30
28959;DHT22;16066;0.000;0.000;2023-04-16T03:29:04;19.10;41.30
28959;DHT22;16066;0.000;0.000;2023-04-16T03:31:30;19.10;41.30
28959;DHT22;16066;0.000;0.000;2023-04-16T03:33:55;19.10;41.30
28959;DHT22;16066;0.000;0.000;2023-04-16T03:36:21;19.10;41.30
28959;DHT22;16066;0.000;0.000;2023-04-16T03:38:51;19.10;41.30
28959;DHT22;16066;0.000;0.000;2023-04-16T03:41:17;19.00;41.80
28959;DHT22;16066;0.000;0.000;2023-04-16T03:43:42;19.00;41.90
28959;DHT22;16066;0.000;0.000;2023-04-16T03:46:08;19.00;41.20
28959;DHT22;16066;0.000;0.000;2023-04-16T03:48:33;19.00;41.20
28959;DHT22;16066;0.000;0.000;2023-04-16T03:50:59;19.00;41.20
28959;DHT22;16066;0.000;0.000;2023-04-16T03:53:24;19.00;41.20
28959;DHT22;16066;0.000;0.000;2023-04-16T03:55:51;19.00;41.20
28959;DHT22;16066;0.000;0.000;2023-04-16T03:58:17;19.00;41.20
28959;DHT22;16066;0.000;0.000;2023-04-16T04:00:42;19.00;41.20
28959;DHT22;16066;0.000;0.000;2023-04-16T04:03:11;19.00;41.20
28959;DHT22;16066;0.000;0.000;2023-04-16T04:05:38;19.00;41.20
28959;DHT22;16066;0.000;0.000;2023-04-16T04:08:04;19.00;41.20
28959;DHT22;16066;0.000;0.000;2023-04-16T04:10:34;19.00;41.30
28959;DHT22;16066;0.000;0.000;2023-04-16T04:13:04;19.00;41.20
28959;DHT22;16066;0.000;0.000;2023-04-16T04:15:30;19.00;41.30
28959;DHT22;16066;0.000;0.000;2023-04-16T04:17:56;19.00;41.20
28959;DHT22;16066;0.000;0.000;2023-04-16T04:20:22;19.00;41.30
28959;DHT22;16066;0.000;0.000;2023-04-16T04:22:49;19.00;41.20
28959;DHT22;16066;0.000;0.000;2023-04-16T04:25:15;19.00;41.20
28959;DHT22;16066;0.000;0.000;2023-04-16T04:27:41;19.00;41.30
28959;DHT22;16066;0.000;0.000;2023-04-16T04:30:07;19.00;41.30
28959;DHT22;16066;0.000;0.000;2023-04-16T04:32:33;19.00;41.30
28959;DHT22;16066;0.000;0.000;2023-04-16T04:35:02;19.00;41.30
28959;DHT22;16066;0.000;0.000;2023-04-16T04:37:28;19.00;41.30
28959;DHT22;16066;0.000;0.000;2023-04-16T04:39:53;19.00;41.30
28959;DHT22;16066;0.000;0.000;2023-04-16T04:42:20;19.00;41.30
28959;DHT22;16066;0.000;0.000;2023-04-16T04:44:46;19.00;41.40
28959;DHT22;16066;0.000;0.000;2023-04-16T04:47:12;19.00;41.30
28959;DHT22;16066;0.000;0.000;2023-04-16T04:49:38;19.00;41.40
28959;DHT22;16066;0.000;0.000;2023-04-16T04:52:03;19.00;41.40
28959;DHT22;16066;0.000;0.000;2023-04-16T04:54:30;19.00;41.40
28959;DHT22;16066;0.000;0.000;2023-04-16T04:56:55;19.00;41.40
28959;DHT22;16066;0.000;0.000;2023-04-16T04:59:22;19.00;41.40
28959;DHT22;16066;0.000;0.000;2023-04-16T05:01:48;19.00;41.30
28959;DHT22;16066;0.000;0.000;2023-04-16T05:04:13;18.90;41.30
28959;DHT22;16066;0.000;0.000;2023-04-16T05:06:39;19.00;41.40
28959;DHT22;16066;0.000;0.000;2023-04-16T05:09:04;19.00;41.30
28959;DHT22;16066;0.000;0.000;2023-04-16T05:11:32;18.90;41.30
28959;DHT22;16066;0.000;0.000;2023-04-16T05:13:57;18.90;41.30
28959;DHT22;16066;0.000;0.000;2023-04-16T05:16:23;19.00;41.40
28959;DHT22;16066;0.000;0.000;2023-04-16T05:18:48;19.00;41.40
28959;DHT22;16066;0.000;0.000;2023-04-16T05:21:14;18.90;41.30
28959;DHT22;16066;0.000;0.000;2023-04-16T05:23:40;18.90;41.30
28959;DHT22;16066;0.000;0.000;2023-04-16T05:26:06;19.00;41.20
28959;DHT22;16066;0.000;0.000;2023-04-16T05:28:31;18.90;41.30
28959;DHT22;16066;0.000;0.000;2023-04-16T05:30:57;18.90;41.30
28959;DHT22;16066;0.000;0.000;2023-04-16T05:33:22;18.90;41.20
28959;DHT22;16066;0.000;0.000;2023-04-16T05:35:48;18.90;41.30
28959;DHT22;16066;0.000;0.000;2023-04-16T05:38:13;18.90;41.30
28959;DHT22;16066;0.000;0.000;2023-04-16T05:40:39;18.90;41.40
28959;DHT22;16066;0.000;0.000;2023-04-16T05:43:04;19.00;41.60
28959;DHT22;16066;0.000;0.000;2023-04-16T05:45:30;19.00;41.40
28959;DHT22;16066;0.000;0.000;2023-04-16T05:47:57;19.00;41.20
28959;DHT22;16066;0.000;0.000;2023-04-16T05:50:23;19.00;41.20
28959;DHT22;16066;0.000;0.000;2023-04-16T05:52:48;19.00;41.10
28959;DHT22;16066;0.000;0.000;2023-04-16T05:55:14;19.10;41.50
28959;DHT22;16066;0.000;0.000;2023-04-16T05:57:39;19.10;41.40
28959;DHT22;16066;0.000;0.000;2023-04-16T06:00:05;19.10;41.50
28959;DHT22;16066;0.000;0.000;2023-04-16T06:02:31;19.20;41.50
28959;DHT22;16066;0.000;0.000;2023-04-16T06:04:56;19.20;41.50
28959;DHT22;16066;0.000;0.000;2023-04-16T06:07:22;19.30;41.60
28959;DHT22;16066;0.000;0.000;2023-04-16T06:09:47;19.30;41.90
28959;DHT22;16066;0.000;0.000;2023-04-16T06:12:13;19.40;41.90
28959;DHT22;16066;0.000;0.000;2023-04-16T06:14:38;19.50;41.70
28959;DHT22;16066;0.000;0.000;2023-04-16T06:17:04;19.50;41.60
28959;DHT22;16066;0.000;0.000;2023-04-16T06:19:30;19.60;41.50
28959;DHT22;16066;0.000;0.000;2023-04-16T06:21:56;19.60;41.50
28959;DHT22;16066;0.000;0.000;2023-04-16T06:24:21;19.70;41.60
28959;DHT22;16066;0.000;0.000;2023-04-16T06:26:47;19.70;41.50
28959;DHT22;16066;0.000;0.000;2023-04-16T06:29:12;19.70;41.40
28959;DHT22;16066;0.000;0.000;2023-04-16T06:31:38;19.80;41.30
28959;DHT22;16066;0.000;0.000;2023-04-16T06:34:03;19.80;41.30
28959;DHT22;16066;0.000;0.000;2023-04-16T06:36:29;19.90;41.20
28959;DHT22;16066;0.000;0.000;2023-04-16T06:38:55;19.90;41.10
28959;DHT22;16066;0.000;0.000;2023-04-16T06:41:21;19.90;40.90
28959;DHT22;16066;0.000;0.000;2023-04-16T06:43:47;20.00;40.80
28959;DHT22;16066;0.000;0.000;2023-04-16T06:46:12;20.00;40.90
28959;DHT22;16066;0.000;0.000;2023-04-16T06:48:38;20.00;40.80
28959;DHT22;16066;0.000;0.000;2023-04-16T06:51:03;20.10;41.00
28959;DHT22;16066;0.000;0.000;2023-04-16T06:53:29;20.10;41.20
28959;DHT22;16066;0.000;0.000;2023-04-16T06:55:54;20.10;41.20
28959;DHT22;16066;0.000;0.000;2023-04-16T06:58:20;20.10;40.90
28959;DHT22;16066;0.000;0.000;2023-04-16T07:00:46;20.10;40.80
28959;DHT22;16066;0.000;0.000;2023-04-16T07:03:13;20.20;40.80
28959;DHT22;16066;0.000;0.000;2023-04-16T07:05:38;20.20;40.70
28959;DHT22;16066;0.000;0.000;2023-04-16T07:08:04;20.30;41.00
28959;DHT22;16066;0.000;0.000;2023-04-16T07:10:30;20.30;40.70
28959;DHT22;16066;0.000;0.000;2023-04-16T07:12:56;20.30;40.70
28959;DHT22;16066;0.000;0.000;2023-04-16T07:15:21;20.40;40.60
28959;DHT22;16066;0.000;0.000;2023-04-16T07:17:47;20.40;40.80
28959;DHT22;16066;0.000;0.000;2023-04-16T07:20:12;20.40;40.60
28959;DHT22;16066;0.000;0.000;2023-04-16T07:22:38;20.50;40.80
28959;DHT22;16066;0.000;0.000;2023-04-16T07:25:04;20.50;40.80
28959;DHT22;16066;0.000;0.000;2023-04-16T07:27:30;20.50;40.70
28959;DHT22;16066;0.000;0.000;2023-04-16T07:29:55;20.50;40.90
28959;DHT22;16066;0.000;0.000;2023-04-16T07:32:21;20.50;41.00
28959;DHT22;16066;0.000;0.000;2023-04-16T07:34:47;20.50;40.80
28959;DHT22;16066;0.000;0.000;2023-04-16T07:37:12;20.50;40.80
28959;DHT22;16066;0.000;0.000;2023-04-16T07:39:38;20.60;40.80
28959;DHT22;16066;0.000;0.000;2023-04-16T07:42:03;20.60;40.70
28959;DHT22;16066;0.000;0.000;2023-04-16T07:44:29;20.60;40.60
28959;DHT22;16066;0.000;0.000;2023-04-16T07:46:54;20.50;40.50
28959;DHT22;16066;0.000;0.000;2023-04-16T07:49:20;20.50;40.50
28959;DHT22;16066;0.000;0.000;2023-04-16T07:51:45;20.50;40.50
28959;DHT22;16066;0.000;0.000;2023-04-16T07:54:11;20.60;40.50
28959;DHT22;16066;0.000;0.000;2023-04-16T07:56:36;20.50;40.50
28959;DHT22;16066;0.000;0.000;2023-04-16T07:59:02;20.50;40.50
28959;DHT22;16066;0.000;0.000;2023-04-16T08:01:27;20.50;40.50
28959;DHT22;16066;0.000;0.000;2023-04-16T08:03:53;20.50;40.40
28959;DHT22;16066;0.000;0.000;2023-04-16T08:06:18;20.50;40.60
28959;DHT22;16066;0.000;0.000;2023-04-16T08:08:44;20.50;40.50
28959;DHT22;16066;0.000;0.000;2023-04-16T08:11:10;20.50;40.40
28959;DHT22;16066;0.000;0.000;2023-04-16T08:13:36;20.50;40.50
28959;DHT22;16066;0.000;0.000;2023-04-16T08:16:01;20.60;40.50
28959;DHT22;16066;0.000;0.000;2023-04-16T08:18:27;20.60;40.60
28959;DHT22;16066;0.000;0.000;2023-04-16T08:20:52;20.60;40.50
28959;DHT22;16066;0.000;0.000;2023-04-16T08:23:18;20.70;40.60
28959;DHT22;16066;0.000;0.000;2023-04-16T08:25:43;20.60;40.60
28959;DHT22;16066;0.000;0.000;2023-04-16T08:28:09;20.60;41.10
28959;DHT22;16066;0.000;0.000;2023-04-16T08:30:34;20.70;40.60
28959;DHT22;16066;0.000;0.000;2023-04-16T08:33:00;20.70;40.50
28959;DHT22;16066;0.000;0.000;2023-04-16T08:35:26;20.70;40.40
28959;DHT22;16066;0.000;0.000;2023-04-16T08:37:51;20.70;40.50
28959;DHT22;16066;0.000;0.000;2023-04-16T08:40:18;20.70;40.30
28959;DHT22;16066;0.000;0.000;2023-04-16T08:42:53;20.70;40.20
28959;DHT22;16066;0.000;0.000;2023-04-16T08:45:20;20.70;40.20
28959;DHT22;16066;0.000;0.000;2023-04-16T08:47:47;20.70;40.20
28959;DHT22;16066;0.000;0.000;2023-04-16T08:50:14;20.70;40.10
28959;DHT22;16066;0.000;0.000;2023-04-16T08:53:02;20.80;40.10
28959;DHT22;16066;0.000;0.000;2023-04-16T08:55:48;20.70;40.10
28959;DHT22;16066;0.000;0.000;2023-04-16T08:58:20;20.80;40.10
28959;DHT22;16066;0.000;0.000;2023-04-16T09:00:47;20.70;40.00
28959;DHT22;16066;0.000;0.000;2023-04-16T09:03:13;20.80;40.10
28959;DHT22;16066;0.000;0.000;2023-04-16T09:05:39;20.80;40.00
28959;DHT22;16066;0.000;0.000;2023-04-16T09:08:06;20.70;39.90
28959;DHT22;16066;0.000;0.000;2023-04-16T09:10:32;20.80;40.00
28959;DHT22;16066;0.000;0.000;2023-04-16T09:12:57;20.70;40.00
28959;DHT22;16066;0.000;0.000;2023-04-16T09:15:24;20.80;40.10
28959;DHT22;16066;0.000;0.000;2023-04-16T09:17:52;20.70;40.10
28959;DHT22;16066;0.000;0.000;2023-04-16T09:20:18;20.70;40.00
28959;DHT22;16066;0.000;0.000;2023-04-16T09:22:44;20.70;40.10
28959;DHT22;16066;0.000;0.000;2023-04-16T09:25:11;20.80;40.20
28959;DHT22;16066;0.000;0.000;2023-04-16T09:27:37;20.80;40.20
28959;DHT22;16066;0.000;0.000;2023-04-16T09:30:20;20.80;40.40
28959;DHT22;16066;0.000;0.000;2023-04-16T09:32:46;20.80;40.40
28959;DHT22;16066;0.000;0.000;2023-04-16T09:35:12;20.80;40.40
28959;DHT22;16066;0.000;0.000;2023-04-16T09:37:39;20.90;40.70
28959;DHT22;16066;0.000;0.000;2023-04-16T09:40:05;20.90;40.70
28959;DHT22;16066;0.000;0.000;2023-04-16T09:42:35;20.90;40.70
28959;DHT22;16066;0.000;0.000;2023-04-16T09:45:02;20.90;40.60
28959;DHT22;16066;0.000;0.000;2023-04-16T09:47:42;20.90;40.50
28959;DHT22;16066;0.000;0.000;2023-04-16T09:50:08;21.00;40.60
28959;DHT22;16066;0.000;0.000;2023-04-16T09:52:37;20.90;40.40
28959;DHT22;16066;0.000;0.000;2023-04-16T09:55:03;21.00;40.40
28959;DHT22;16066;0.000;0.000;2023-04-16T09:57:29;21.00;40.40
28959;DHT22;16066;0.000;0.000;2023-04-16T10:00:01;21.00;40.40
28959;DHT22;16066;0.000;0.000;2023-04-16T10:02:27;20.90;40.30
28959;DHT22;16066;0.000;0.000;2023-04-16T10:04:54;20.90;40.20
28959;DHT22;16066;0.000;0.000;2023-04-16T10:07:19;20.90;40.30
28959;DHT22;16066;0.000;0.000;2023-04-16T10:09:48;21.00;40.50
28959;DHT22;16066;0.000;0.000;2023-04-16T10:12:15;21.00;40.50
28959;DHT22;16066;0.000;0.000;2023-04-16T10:14:41;21.00;40.40
28959;DHT22;16066;0.000;0.000;2023-04-16T10:17:09;20.90;40.20
28959;DHT22;16066;0.000;0.000;2023-04-16T10:19:35;20.90;40.40
28959;DHT22;16066;0.000;0.000;2023-04-16T10:22:01;21.00;40.50
28959;DHT22;16066;0.000;0.000;2023-04-16T10:24:28;21.00;40.30
28959;DHT22;16066;0.000;0.000;2023-04-16T10:26:54;21.00;40.20
28959;DHT22;16066;0.000;0.000;2023-04-16T10:29:21;21.00;40.20
28959;DHT22;16066;0.000;0.000;2023-04-16T10:31:47;21.00;40.10
28959;DHT22;16066;0.000;0.000;2023-04-16T10:34:14;21.00;40.00
28959;DHT22;16066;0.000;0.000;2023-04-16T10:36:40;21.00;40.20
28959;DHT22;16066;0.000;0.000;2023-04-16T10:39:10;21.00;40.20
28959;DHT22;16066;0.000;0.000;2023-04-16T10:41:37;21.00;40.10
28959;DHT22;16066;0.000;0.000;2023-04-16T10:44:07;21.00;40.30
28959;DHT22;16066;0.000;0.000;2023-04-16T10:46:40;21.00;40.30
28959;DHT22;16066;0.000;0.000;2023-04-16T10:49:17;21.10;40.20
28959;DHT22;16066;0.000;0.000;2023-04-16T10:51:56;21.10;40.10
28959;DHT22;16066;0.000;0.000;2023-04-16T10:54:25;21.00;40.00
28959;DHT22;16066;0.000;0.000;2023-04-16T10:56:52;21.10;40.10
28959;DHT22;16066;0.000;0.000;2023-04-16T10:59:19;21.10;40.10
28959;DHT22;16066;0.000;0.000;2023-04-16T11:01:47;21.10;40.40
28959;DHT22;16066;0.000;0.000;2023-04-16T11:12:22;21.00;40.20
28959;DHT22;16066;0.000;0.000;2023-04-16T11:14:50;21.00;40.20
28959;DHT22;16066;0.000;0.000;2023-04-16T11:17:16;21.00;40.10
28959;DHT22;16066;0.000;0.000;2023-04-16T11:19:42;21.00;40.30
28959;DHT22;16066;0.000;0.000;2023-04-16T11:22:11;21.00;40.40
28959;DHT22;16066;0.000;0.000;2023-04-16T11:24:36;21.00;40.20
28959;DHT22;16066;0.000;0.000;2023-04-16T11:27:04;21.00;40.20
28959;DHT22;16066;0.000;0.000;2023-04-16T11:29:30;21.00;40.90
28959;DHT22;16066;0.000;0.000;2023-04-16T11:31:55;21.00;40.20
28959;DHT22;16066;0.000;0.000;2023-04-16T11:34:21;21.00;40.20
28959;DHT22;16066;0.000;0.000;2023-04-16T11:36:49;21.00;40.20
28959;DHT22;16066;0.000;0.000;2023-04-16T11:39:15;21.00;40.20
28959;DHT22;16066;0.000;0.000;2023-04-16T11:41:44;21.00;40.20
28959;DHT22;16066;0.000;0.000;2023-04-16T11:44:39;21.00;40.20
28959;DHT22;16066;0.000;0.000;2023-04-16T11:47:05;21.00;40.20
28959;DHT22;16066;0.000;0.000;2023-04-16T11:49:31;21.00;40.20
28959;DHT22;16066;0.000;0.000;2023-04-16T11:51:59;21.00;40.30
28959;DHT22;16066;0.000;0.000;2023-04-16T11:54:24;21.00;40.30
28959;DHT22;16066;0.000;0.000;2023-04-16T11:56:52;21.00;40.40
28959;DHT22;16066;0.000;0.000;2023-04-16T11:59:19;21.00;40.40
28959;DHT22;16066;0.000;0.000;2023-04-16T12:01:50;21.00;40.40
28959;DHT22;16066;0.000;0.000;2023-04-16T12:04:19;20.90;40.30
28959;DHT22;16066;0.000;0.000;2023-04-16T12:09:29;20.90;40.40
28959;DHT22;16066;0.000;0.000;2023-04-16T12:11:55;20.90;40.40
28959;DHT22;16066;0.000;0.000;2023-04-16T12:14:21;20.90;40.50
28959;DHT22;16066;0.000;0.000;2023-04-16T12:16:47;20.90;40.70
28959;DHT22;16066;0.000;0.000;2023-04-16T12:19:13;20.90;40.50
28959;DHT22;16066;0.000;0.000;2023-04-16T12:21:40;21.00;40.60
28959;DHT22;16066;0.000;0.000;2023-04-16T12:24:07;21.00;40.50
28959;DHT22;16066;0.000;0.000;2023-04-16T12:26:44;21.00;40.50
28959;DHT22;16066;0.000;0.000;2023-04-16T12:29:25;21.00;40.50
28959;DHT22;16066;0.000;0.000;2023-04-16T12:31:52;21.00;40.60
28959;DHT22;16066;0.000;0.000;2023-04-16T12:34:19;21.00;40.60
28959;DHT22;16066;0.000;0.000;2023-04-16T12:36:46;21.00;40.80
28959;DHT22;16066;0.000;0.000;2023-04-16T12:39:13;20.90;40.90
28959;DHT22;16066;0.000;0.000;2023-04-16T12:41:41;20.90;40.80
28959;DHT22;16066;0.000;0.000;2023-04-16T12:44:14;20.90;40.70
28959;DHT22;16066;0.000;0.000;2023-04-16T12:46:41;20.90;40.60
28959;DHT22;16066;0.000;0.000;2023-04-16T12:49:08;20.90;40.80
28959;DHT22;16066;0.000;0.000;2023-04-16T12:51:34;21.00;40.90
28959;DHT22;16066;0.000;0.000;2023-04-16T12:54:01;21.00;40.80
28959;DHT22;16066;0.000;0.000;2023-04-16T12:56:27;21.00;40.70
28959;DHT22;16066;0.000;0.000;2023-04-16T12:58:53;21.00;40.70
28959;DHT22;16066;0.000;0.000;2023-04-16T13:01:19;21.00;40.70
28959;DHT22;16066;0.000;0.000;2023-04-16T13:03:45;21.00;40.70
28959;DHT22;16066;0.000;0.000;2023-04-16T13:06:11;21.00;40.60
28959;DHT22;16066;0.000;0.000;2023-04-16T13:08:37;21.00;40.60
28959;DHT22;16066;0.000;0.000;2023-04-16T13:11:03;21.00;40.60
28959;DHT22;16066;0.000;0.000;2023-04-16T13:13:29;21.00;40.60
28959;DHT22;16066;0.000;0.000;2023-04-16T13:15:55;21.00;40.70
28959;DHT22;16066;0.000;0.000;2023-04-16T13:18:20;20.90;40.60
28959;DHT22;16066;0.000;0.000;2023-04-16T13:20:46;20.90;40.70
28959;DHT22;16066;0.000;0.000;2023-04-16T13:23:11;20.90;40.60
28959;DHT22;16066;0.000;0.000;2023-04-16T13:25:37;20.90;40.60
28959;DHT22;16066;0.000;0.000;2023-04-16T13:28:03;20.90;40.60
28959;DHT22;16066;0.000;0.000;2023-04-16T13:30:28;20.90;40.60
28959;DHT22;16066;0.000;0.000;2023-04-16T13:32:55;21.00;40.50
28959;DHT22;16066;0.000;0.000;2023-04-16T13:35:21;21.00;40.50
28959;DHT22;16066;0.000;0.000;2023-04-16T13:37:46;21.00;40.40
28959;DHT22;16066;0.000;0.000;2023-04-16T13:40:12;21.10;40.40
28959;DHT22;16066;0.000;0.000;2023-04-16T13:42:37;21.10;40.40
28959;DHT22;16066;0.000;0.000;2023-04-16T13:45:03;21.10;40.40
28959;DHT22;16066;0.000;0.000;2023-04-16T13:47:29;21.10;40.40
28959;DHT22;16066;0.000;0.000;2023-04-16T13:49:54;21.10;40.50
28959;DHT22;16066;0.000;0.000;2023-04-16T13:52:20;21.10;40.60
28959;DHT22;16066;0.000;0.000;2023-04-16T13:54:46;21.00;40.60
28959;DHT22;16066;0.000;0.000;2023-04-16T13:57:11;21.00;40.90
28959;DHT22;16066;0.000;0.000;2023-04-16T13:59:37;20.90;40.90
28959;DHT22;16066;0.000;0.000;2023-04-16T14:02:02;20.90;40.90
28959;DHT22;16066;0.000;0.000;2023-04-16T14:04:29;20.90;41.00
28959;DHT22;16066;0.000;0.000;2023-04-16T14:06:55;20.90;41.00
28959;DHT22;16066;0.000;0.000;2023-04-16T14:09:21;20.90;41.00
28959;DHT22;16066;0.000;0.000;2023-04-16T14:11:47;20.90;40.90
28959;DHT22;16066;0.000;0.000;2023-04-16T14:14:12;20.90;41.00
28959;DHT22;16066;0.000;0.000;2023-04-16T14:16:38;20.90;41.00
28959;DHT22;16066;0.000;0.000;2023-04-16T14:19:03;20.90;41.00
28959;DHT22;16066;0.000;0.000;2023-04-16T14:21:29;20.90;41.00
28959;DHT22;16066;0.000;0.000;2023-04-16T14:23:55;20.90;41.10
28959;DHT22;16066;0.000;0.000;2023-04-16T14:26:21;20.90;41.00
28959;DHT22;16066;0.000;0.000;2023-04-16T14:28:46;20.90;41.10
28959;DHT22;16066;0.000;0.000;2023-04-16T14:31:12;20.90;41.20
28959;DHT22;16066;0.000;0.000;2023-04-16T14:33:38;20.90;41.10
28959;DHT22;16066;0.000;0.000;2023-04-16T14:36:03;20.90;41.10
28959;DHT22;16066;0.000;0.000;2023-04-16T14:38:29;20.90;41.10
28959;DHT22;16066;0.000;0.000;2023-04-16T14:40:55;20.90;41.00
28959;DHT22;16066;0.000;0.000;2023-04-16T14:43:21;20.90;41.00
28959;DHT22;16066;0.000;0.000;2023-04-16T14:45:46;20.90;41.10
28959;DHT22;16066;0.000;0.000;2023-04-16T14:48:12;20.90;41.00
28959;DHT22;16066;0.000;0.000;2023-04-16T14:50:37;20.90;41.00
28959;DHT22;16066;0.000;0.000;2023-04-16T14:53:07;20.90;41.00
28959;DHT22;16066;0.000;0.000;2023-04-16T14:55:33;20.90;41.00
28959;DHT22;16066;0.000;0.000;2023-04-16T14:57:59;20.90;41.00
28959;DHT22;16066;0.000;0.000;2023-04-16T15:00:24;20.90;41.10
28959;DHT22;16066;0.000;0.000;2023-04-16T15:02:50;20.90;41.10
28959;DHT22;16066;0.000;0.000;2023-04-16T15:05:15;20.90;41.10
28959;DHT22;16066;0.000;0.000;2023-04-16T15:07:41;20.80;40.90
28959;DHT22;16066;0.000;0.000;2023-04-16T15:10:08;20.90;41.10
28959;DHT22;16066;0.000;0.000;2023-04-16T15:12:34;20.90;41.00
28959;DHT22;16066;0.000;0.000;2023-04-16T15:14:59;20.90;41.00
28959;DHT22;16066;0.000;0.000;2023-04-16T15:17:25;20.90;41.00
28959;DHT22;16066;0.000;0.000;2023-04-16T15:19:51;20.90;40.90
28959;DHT22;16066;0.000;0.000;2023-04-16T15:22:17;20.90;40.90
28959;DHT22;16066;0.000;0.000;2023-04-16T15:24:43;20.90;40.80
28959;DHT22;16066;0.000;0.000;2023-04-16T15:27:08;20.90;40.80
28959;DHT22;16066;0.000;0.000;2023-04-16T15:29:35;20.90;40.80
28959;DHT22;16066;0.000;0.000;2023-04-16T15:32:00;21.00;40.90
28959;DHT22;16066;0.000;0.000;2023-04-16T15:34:26;21.00;40.90
28959;DHT22;16066;0.000;0.000;2023-04-16T15:36:52;21.00;40.90
28959;DHT22;16066;0.000;0.000;2023-04-16T15:39:17;21.00;40.80
28959;DHT22;16066;0.000;0.000;2023-04-16T15:41:43;21.00;40.80
28959;DHT22;16066;0.000;0.000;2023-04-16T15:44:09;21.00;40.80
28959;DHT22;16066;0.000;0.000;2023-04-16T15:46:35;21.00;40.90
28959;DHT22;16066;0.000;0.000;2023-04-16T15:49:00;21.00;40.80
28959;DHT22;16066;0.000;0.000;2023-04-16T15:51:26;21.00;40.80